IDs: Format: Raw Decoded Include TAF

Data at: 2019 UTC 19 Mar 2018

KABY 191953Z 15007KT 10SM VCTS BKN027 23/19 A2970 RMK AO2 LTG DSNT S AND SW SLP056 T02330194
KABY 191853Z 24006KT 10SM BKN021 BKN030 BKN038 26/19 A2974 RMK AO2 SLP068 T02560194
KABY 191753Z 23007KT 10SM BKN019 OVC025 25/19 A2974 RMK AO2 SLP068 T02500194 10250 20178 58027
KABY 191653Z VRB05KT 10SM OVC011 23/19 A2977 RMK AO2 SLP079 T02280194
KABY 191627Z 18007KT 10SM BKN010 OVC033 23/19 A2979 RMK AO2 CIG 008V013 T02280194
KABY 191553Z 18005KT 7SM OVC006 21/19 A2981 RMK AO2 SLP094 T02060189
KABY 191453Z 17006KT 4SM BR OVC005 19/18 A2982 RMK AO2 SLP095 T01940183 55000
KABY 191436Z 17006KT 3SM BR OVC005 19/18 A2981 RMK AO2 T01940183
KABY 191353Z 16005KT 3SM BR OVC003 19/18 A2981 RMK AO2 SLP093 T01890183
KABY 191253Z 15005KT 2SM BR OVC003 18/18 A2981 RMK AO2 SLP094 T01780178
KABY 191153Z 07004KT 1 1/2SM BR OVC002 18/18 A2982 RMK AO2 SLP095 60015 70039 T01780178 10189 20178 53020
KABY 191135Z AUTO 10004KT 2 1/2SM BR OVC002 18/18 A2980 RMK AO2 T01780178
KABY 191114Z AUTO 13004KT 3SM BR OVC002 18/18 A2979 RMK AO2 T01780178
KABY 191053Z AUTO 09005KT 2 1/2SM BR OVC003 18/18 A2977 RMK AO2 SLP080 T01780178
KABY 190953Z AUTO 33003KT 9SM OVC003 18/18 A2978 RMK AO2 SLP083 T01780178
KABY 190940Z AUTO 33006KT 10SM OVC004 18/18 A2977 RMK AO2 T01780178
KABY 190920Z AUTO 29007KT 10SM BKN005 18/17 A2978 RMK AO2 T01780172
KABY 190900Z AUTO 31005KT 10SM FEW006 18/17 A2976 RMK AO2 LTG DSNT SE T01780172
KABY 190853Z AUTO 30004KT 10SM BKN006 18/17 A2976 RMK AO2 LTG DSNT SE RAE14 SLP075 P0000 60015 T01780172 58028
KABY 190832Z AUTO 25003KT 10SM BKN006 18/17 A2976 RMK AO2 LTG DSNT S RAE14 P0000 T01780172
KABY 190753Z AUTO 12008KT 10SM -RA FEW007 BKN110 18/17 A2977 RMK AO2 LTG DSNT S AND SW PRESFR SLP080 P0013 T01780172
KABY 190730Z AUTO VRB03KT 6SM RA BR SCT008 BKN047 OVC110 18/18 A2985 RMK AO2 LTG DSNT E P0010 T01830178
KABY 190717Z AUTO 18010KT 4SM +RA BR SCT008 BKN023 OVC048 18/18 A2983 RMK AO2 LTG DSNT NW-E PRESFR P0008 T01830178
KABY 190704Z AUTO 24006KT 8SM VCTS -RA BKN008 OVC025 18/18 A2987 RMK AO2 LTG DSNT ALQDS CIG 006V010 P0001 T01830178
KABY 190653Z AUTO 25007KT 10SM -RA FEW008 OVC025 18/18 A2987 RMK AO2 LTG DSNT ALQDS SLP112 P0002 T01830178
KABY 190644Z AUTO 21008KT 10SM -RA FEW008 OVC027 18/18 A2986 RMK AO2 LTG DSNT ALQDS P0001 T01830178
KABY 190624Z AUTO 22007KT 8SM -RA BKN029 OVC035 19/18 A2985 RMK AO2 LTG DSNT SW-N P0001 T01890183
KABY 190553Z AUTO 18006KT 9SM -RA FEW004 OVC035 19/18 A2984 RMK AO2 LTG DSNT NE AND NW RAB18 SLP103 P0001 60024 T01890183 10233 20189 56019
KABY 190453Z AUTO 12004KT 8SM FEW002 OVC050 19/18 A2985 RMK AO2 RAE42 SLP105 P0002 T01890183 402830183
KABY 190446Z AUTO 11003KT 7SM FEW002 BKN048 OVC085 19/18 A2985 RMK AO2 RAE42 P0002 T01890183
KABY 190428Z AUTO 00000KT 5SM -RA BR FEW019 SCT031 OVC048 19/18 A2987 RMK AO2 P0002 T01890183
KABY 190421Z AUTO 00000KT 5SM -RA BR SCT012 BKN022 OVC060 19/18 A2987 RMK AO2 P0002 T01890183
KABY 190413Z AUTO 00000KT 5SM -RA BR FEW012 BKN032 OVC042 19/18 A2988 RMK AO2 P0002 T01890183
KABY 190353Z AUTO 19005KT 4SM -RA BR SCT004 BKN020 OVC042 19/18 A2989 RMK AO2 SLP119 P0007 T01890183
KABY 190344Z AUTO 00000KT 3SM -RA BR SCT004 BKN017 OVC046 19/19 A2988 RMK AO2 P0007 T01890189
KABY 190331Z AUTO 21004KT 2 1/2SM RA BR BKN004 OVC010 19/19 A2989 RMK AO2 P0004 T01940189
KABY 190321Z AUTO 20004KT 5SM -RA BR BKN005 OVC014 19/19 A2989 RMK AO2 P0001 T01940189
KABY 190311Z AUTO 21004KT 5SM -RA BR SCT005 BKN012 OVC021 19/19 A2989 RMK AO2 P0001 T01940189
KABY 190253Z AUTO 23004KT 5SM -RA BR BKN010 BKN016 OVC022 19/19 A2990 RMK AO2 CIG 006V013 SLP122 P0004 60014 T01940189 50014
KABY 190242Z AUTO 00000KT 5SM -RA BR BKN011 BKN032 OVC039 19/19 A2990 RMK AO2 P0003 T01940189
KABY 190232Z AUTO 00000KT 6SM -RA BR SCT009 BKN032 OVC049 19/19 A2990 RMK AO2 P0003 T01940189
KABY 190153Z AUTO 26006KT 7SM -RA FEW050 OVC060 19/19 A2990 RMK AO2 SLP123 P0008 T01940189
KABY 190053Z AUTO 26007KT 10SM -RA BKN070 OVC085 20/18 A2988 RMK AO2 SLP117 P0002 T02000183
KABY 182353Z AUTO 23005KT 10SM -RA SCT095 SCT120 23/16 A2985 RMK AO2 RAB22 SLP108 P0000 60000 T02330161 10283 20222 53001
KABY 182253Z 27003KT 10SM SCT120 26/16 A2985 RMK AO2 SLP106 T02560156
KABY 182153Z 00000KT 10SM CLR 27/14 A2985 RMK AO2 SLP107 T02670139
KABY 182053Z 19005KT 10SM FEW049 28/15 A2985 RMK AO2 SLP106 T02830150 56033
KABY 181953Z VRB04KT 10SM SCT046 27/16 A2988 RMK AO2 SLP115 T02720161
KABY 181853Z 23009KT 10SM BKN035 BKN042 27/17 A2992 RMK AO2 SLP130 T02670167
KABY 181753Z 25008KT 220V290 10SM BKN027 26/18 A2995 RMK AO2 SLP140 T02560178 10261 20183 58014
KABY 181712Z 26009KT 10SM SCT027 BKN032 24/18 A2997 RMK AO2 T02440178
KABY 181653Z COR 240/07 10SM BKN025 25/18 A2997 RMK AO2 SLP146 T02500178
KABY 181553Z 32006KT 10SM OVC022 23/18 A2998 RMK AO2 SLP152 T02280178
KABY 181500Z 29006KT 10SM OVC016 22/18 A2999 RMK AO2 T02220183
KABY 181453Z 26010KT 10SM BKN013 22/18 A2999 RMK AO2 SLP154 T02220183 53007
KABY 181355Z 26006KT 10SM BKN013 21/18 A2998 RMK AO2 T02110183
KABY 181353Z 28006KT 10SM SCT013 21/18 A2998 RMK AO2 SLP152 T02110183
KABY 181253Z 00000KT 10SM BKN030 20/18 A2997 RMK AO2 SLP148 T02000183
KABY 181153Z 25004KT 10SM FEW020 BKN034 18/18 A2997 RMK AO2 SLP146 T01830178 10206 20183 53015
KABY 181114Z AUTO 25003KT 10SM SCT019 19/18 A2995 RMK AO2 T01890178
KABY 181053Z AUTO 24005KT 10SM OVC018 19/18 A2995 RMK AO2 SLP139 T01940178
KABY 180953Z AUTO 25006KT 10SM BKN021 20/18 A2993 RMK AO2 SLP134 T02000178
KABY 180853Z AUTO 24006KT 10SM BKN020 20/18 A2992 RMK AO2 SLP131 T02000183 58007